Time;durP1;ratioP1;P1;durP2;ratioP2;P2;SDS_P1;SDS_P2;PMS_P1;PMS_P2;Temp;Humidity;BMP_temperature;BMP_pressure;BME280_temperature;BME280_humidity;BME280_pressure;Samples;Min_cycle;Max_cycle;Signal;HPM_P1;HPM_P2
2023/07/26 00:00:53;;;;;;;5.97;2.10;;;11.90;99.90;;;;;;5037620;28;20271;-76
2023/07/26 00:03:20;;;;;;;6.50;2.00;;;11.90;99.90;;;;;;5039532;28;20248;-76
2023/07/26 00:05:48;;;;;;;3.17;1.90;;;11.80;99.90;;;;;;5038796;28;20228;-77
2023/07/26 00:08:16;;;;;;;4.20;2.30;;;11.80;99.90;;;;;;5033512;28;20234;-77
2023/07/26 00:10:45;;;;;;;5.13;2.03;;;11.80;99.90;;;;;;5031542;28;20228;-77
2023/07/26 00:13:12;;;;;;;4.67;1.93;;;11.80;99.90;;;;;;5040505;28;20221;-77
2023/07/26 00:15:38;;;;;;;5.67;1.90;;;11.80;99.90;;;;;;5039911;28;20235;-76
2023/07/26 00:18:05;;;;;;;5.30;2.20;;;11.80;99.90;;;;;;5037122;28;20756;-77
2023/07/26 00:20:32;;;;;;;3.63;2.00;;;11.80;99.90;;;;;;5040492;28;20225;-75
2023/07/26 00:22:59;;;;;;;5.80;2.47;;;11.70;99.90;;;;;;5029647;28;20918;-76
2023/07/26 00:25:27;;;;;;;4.53;2.00;;;11.70;99.90;;;;;;5022335;28;20232;-77
2023/07/26 00:27:53;;;;;;;4.07;2.33;;;11.70;99.90;;;;;;5037860;28;20223;-77
2023/07/26 00:30:22;;;;;;;4.03;2.33;;;11.70;99.90;;;;;;5038860;28;20229;-77
2023/07/26 00:32:49;;;;;;;6.00;2.60;;;11.70;99.90;;;;;;5034756;28;20219;-77
2023/07/26 00:35:21;;;;;;;6.63;2.20;;;11.70;99.90;;;;;;5036407;28;20294;-76
2023/07/26 00:37:48;;;;;;;4.33;2.13;;;11.60;99.90;;;;;;5038107;28;20229;-76
2023/07/26 00:40:14;;;;;;;4.13;2.10;;;11.60;99.90;;;;;;5032812;28;20641;-77
2023/07/26 00:42:42;;;;;;;5.37;2.17;;;11.60;99.90;;;;;;5036760;28;20310;-77
2023/07/26 00:45:10;;;;;;;4.17;1.80;;;11.60;99.90;;;;;;5034965;28;20221;-77
2023/07/26 00:47:37;;;;;;;4.20;1.80;;;11.50;99.90;;;;;;5038195;28;20309;-78
2023/07/26 00:50:05;;;;;;;4.37;1.93;;;11.50;99.90;;;;;;5022638;28;20233;-76
2023/07/26 00:52:32;;;;;;;3.23;1.70;;;11.40;99.90;;;;;;5041573;28;20307;-76
2023/07/26 00:55:02;;;;;;;3.40;2.00;;;11.40;99.90;;;;;;5024028;28;20227;-76
2023/07/26 00:57:29;;;;;;;3.93;1.70;;;11.40;99.90;;;;;;5036144;28;20310;-77
2023/07/26 00:59:58;;;;;;;5.33;2.00;;;11.40;99.90;;;;;;5020755;28;20902;-76
2023/07/26 01:02:25;;;;;;;6.70;2.40;;;11.40;99.90;;;;;;5040054;28;20327;-76
2023/07/26 01:04:52;;;;;;;3.97;1.93;;;11.40;99.90;;;;;;5041291;28;20230;-76
2023/07/26 01:07:25;;;;;;;3.20;2.03;;;11.30;99.90;;;;;;5038779;28;20232;-76
2023/07/26 01:10:02;;;;;;;4.10;2.20;;;11.30;99.90;;;;;;5023141;28;20254;-76
2023/07/26 01:12:34;;;;;;;4.47;1.90;;;11.30;99.90;;;;;;5035317;28;20252;-77
2023/07/26 01:15:05;;;;;;;3.47;1.97;;;11.30;99.90;;;;;;5043784;28;20319;-76
2023/07/26 01:17:32;;;;;;;6.20;2.27;;;11.30;99.90;;;;;;5036839;28;20228;-76
2023/07/26 01:19:59;;;;;;;4.57;1.70;;;11.30;99.90;;;;;;5020213;28;20719;-77
2023/07/26 01:22:27;;;;;;;6.07;1.80;;;11.20;99.90;;;;;;5025747;28;20310;-76
2023/07/26 01:24:54;;;;;;;4.23;1.87;;;11.20;99.90;;;;;;5022189;28;20632;-76
2023/07/26 01:27:20;;;;;;;7.13;2.27;;;11.20;99.90;;;;;;5034500;28;20260;-76
2023/07/26 01:29:51;;;;;;;3.90;1.77;;;11.20;99.90;;;;;;5017285;28;20220;-76
2023/07/26 01:32:21;;;;;;;6.10;1.93;;;11.20;99.90;;;;;;5034373;28;20231;-76
2023/07/26 01:34:49;;;;;;;7.63;2.00;;;11.20;99.90;;;;;;5020636;28;20904;-76
2023/07/26 01:37:16;;;;;;;6.03;2.00;;;11.20;99.90;;;;;;5026896;28;20304;-77
2023/07/26 01:39:45;;;;;;;3.67;1.67;;;11.20;99.90;;;;;;5018466;28;20234;-77
2023/07/26 01:42:12;;;;;;;6.50;1.90;;;11.20;99.90;;;;;;5010272;28;20715;-76
2023/07/26 01:44:39;;;;;;;5.97;2.07;;;11.20;99.90;;;;;;5037762;28;20247;-75
2023/07/26 01:47:06;;;;;;;4.63;2.00;;;11.20;99.90;;;;;;5033526;28;20220;-76
2023/07/26 01:49:33;;;;;;;4.50;1.90;;;11.20;99.90;;;;;;5027668;28;20651;-75
2023/07/26 01:52:00;;;;;;;5.03;2.17;;;11.20;99.90;;;;;;5037730;28;20781;-76
2023/07/26 01:54:27;;;;;;;5.53;2.20;;;11.30;99.90;;;;;;5039338;28;20256;-76
2023/07/26 01:56:56;;;;;;;4.23;1.70;;;11.30;99.90;;;;;;5038657;28;20245;-76
2023/07/26 01:59:23;;;;;;;3.00;2.00;;;11.30;99.90;;;;;;5036853;28;20230;-76
2023/07/26 02:01:50;;;;;;;6.97;2.33;;;11.30;99.90;;;;;;5021740;28;20226;-77
2023/07/26 02:04:17;;;;;;;4.43;1.83;;;11.40;99.90;;;;;;5039646;28;20224;-76
2023/07/26 02:06:43;;;;;;;5.17;1.77;;;11.40;99.90;;;;;;5035028;28;20221;-77
2023/07/26 02:09:10;;;;;;;2.90;1.90;;;11.40;99.90;;;;;;5021261;28;20220;-77
2023/07/26 02:11:37;;;;;;;6.33;2.17;;;11.40;99.90;;;;;;5021329;28;20309;-76
2023/07/26 02:14:05;;;;;;;5.00;1.53;;;11.50;99.90;;;;;;5039314;28;20224;-76
2023/07/26 02:16:32;;;;;;;4.60;1.90;;;11.50;99.90;;;;;;5020603;28;20716;-76
2023/07/26 02:18:58;;;;;;;3.77;2.07;;;11.50;99.90;;;;;;5034126;28;20221;-77
2023/07/26 02:21:25;;;;;;;4.10;2.30;;;11.60;99.90;;;;;;5020561;28;20227;-76
2023/07/26 02:23:52;;;;;;;5.80;2.00;;;11.50;99.90;;;;;;5039413;28;20275;-76
2023/07/26 02:26:18;;;;;;;3.53;1.90;;;11.60;99.90;;;;;;5036925;28;21108;-76
2023/07/26 02:28:45;;;;;;;5.77;1.90;;;11.60;99.90;;;;;;5022764;28;20225;-75
2023/07/26 02:31:13;;;;;;;6.30;2.17;;;11.60;99.90;;;;;;5042290;28;20273;-75
2023/07/26 02:33:40;;;;;;;4.00;1.77;;;11.60;99.90;;;;;;5021139;28;20240;-76
2023/07/26 02:36:07;;;;;;;4.17;1.83;;;11.60;99.90;;;;;;5023840;28;20654;-75
2023/07/26 02:38:34;;;;;;;6.30;2.00;;;11.50;99.90;;;;;;5034152;28;20223;-75
2023/07/26 02:41:00;;;;;;;4.13;1.80;;;11.50;99.90;;;;;;5036117;28;20234;-75
2023/07/26 02:43:27;;;;;;;2.50;1.90;;;11.50;99.90;;;;;;5033608;28;20288;-75
2023/07/26 02:45:55;;;;;;;5.10;2.00;;;11.40;99.90;;;;;;5020752;28;20697;-75
2023/07/26 02:48:23;;;;;;;6.30;2.10;;;11.40;99.90;;;;;;5013414;28;20225;-75
2023/07/26 02:50:49;;;;;;;6.17;2.07;;;11.40;99.90;;;;;;5024390;28;20328;-75
2023/07/26 02:53:16;;;;;;;4.43;2.10;;;11.40;99.90;;;;;;5023705;28;20306;-77
2023/07/26 02:55:43;;;;;;;5.90;2.07;;;11.30;99.90;;;;;;5037183;28;20239;-77
2023/07/26 02:58:11;;;;;;;2.60;1.53;;;11.30;99.90;;;;;;5022059;28;20301;-76
2023/07/26 03:00:38;;;;;;;3.33;1.80;;;11.30;99.90;;;;;;5040347;28;20229;-75
2023/07/26 03:03:05;;;;;;;5.07;1.90;;;11.30;99.90;;;;;;5033624;28;20298;-77
2023/07/26 03:05:33;;;;;;;4.33;2.07;;;11.20;99.90;;;;;;5020623;28;20267;-78
2023/07/26 03:08:00;;;;;;;5.33;2.07;;;11.20;99.90;;;;;;5031988;28;20229;-77
2023/07/26 03:10:27;;;;;;;4.70;1.93;;;11.20;99.90;;;;;;5035782;28;20243;-77
2023/07/26 03:12:55;;;;;;;3.47;1.97;;;11.20;99.90;;;;;;5041850;28;20816;-78
2023/07/26 03:15:23;;;;;;;4.77;1.90;;;11.20;99.90;;;;;;5042209;28;20287;-75
2023/07/26 03:17:49;;;;;;;5.93;1.70;;;11.10;99.90;;;;;;5038237;28;20302;-76
2023/07/26 03:20:16;;;;;;;3.73;2.00;;;11.10;99.90;;;;;;5023668;28;20229;-77
2023/07/26 03:22:44;;;;;;;4.40;2.00;;;11.10;99.90;;;;;;5028630;28;21996;-77
2023/07/26 03:25:11;;;;;;;3.73;2.20;;;11.10;99.90;;;;;;5037105;28;20328;-77
2023/07/26 03:27:38;;;;;;;4.17;2.00;;;11.10;99.90;;;;;;5038706;28;20435;-76
2023/07/26 03:30:05;;;;;;;6.30;2.17;;;11.10;99.90;;;;;;5041623;28;20310;-77
2023/07/26 03:32:32;;;;;;;4.23;2.60;;;11.10;99.90;;;;;;5043013;28;20300;-76
2023/07/26 03:34:59;;;;;;;3.20;1.93;;;11.10;99.90;;;;;;5023736;28;20235;-77
2023/07/26 03:37:26;;;;;;;3.40;2.20;;;11.00;99.90;;;;;;5038070;28;20220;-78
2023/07/26 03:39:54;;;;;;;4.83;2.20;;;11.00;99.90;;;;;;5038976;28;20311;-75
2023/07/26 03:42:21;;;;;;;5.93;2.00;;;11.10;99.90;;;;;;5038500;28;20235;-78
2023/07/26 03:44:48;;;;;;;4.47;2.27;;;11.00;99.90;;;;;;5029402;28;20233;-79
2023/07/26 03:47:15;;;;;;;3.93;2.40;;;11.00;99.90;;;;;;5021620;28;20358;-78
2023/07/26 03:49:41;;;;;;;3.20;2.10;;;11.00;99.90;;;;;;5045666;28;20226;-79
2023/07/26 03:52:09;;;;;;;5.37;2.57;;;11.10;99.90;;;;;;5040920;28;20654;-78
2023/07/26 03:54:35;;;;;;;3.70;2.30;;;11.10;99.90;;;;;;5040212;28;20661;-79
2023/07/26 03:57:04;;;;;;;5.00;2.53;;;11.10;99.90;;;;;;5067658;23;20225;-93
2023/07/26 03:59:30;;;;;;;6.57;2.40;;;11.10;99.90;;;;;;5065252;28;20226;-93
2023/07/26 04:01:57;;;;;;;6.00;2.23;;;11.20;99.90;;;;;;5061476;28;20247;-94
2023/07/26 04:04:24;;;;;;;4.20;2.20;;;11.20;99.90;;;;;;5066795;28;20231;-93
2023/07/26 04:06:51;;;;;;;4.30;2.57;;;11.20;99.90;;;;;;5079943;28;20220;-94
2023/07/26 04:09:18;;;;;;;4.73;2.60;;;11.20;99.90;;;;;;5080256;28;20229;-93
2023/07/26 04:11:44;;;;;;;4.57;2.23;;;11.30;99.90;;;;;;5057575;28;20244;-92
2023/07/26 04:14:13;;;;;;;5.10;2.07;;;11.30;99.90;;;;;;5080029;28;20236;-92
2023/07/26 04:16:39;;;;;;;3.83;2.40;;;11.40;99.90;;;;;;5063623;28;20208;-93
2023/07/26 04:19:06;;;;;;;6.23;2.40;;;11.40;99.90;;;;;;5078113;28;20219;-93
2023/07/26 04:21:33;;;;;;;4.80;2.50;;;11.40;99.90;;;;;;5078937;28;20237;-93
2023/07/26 04:24:00;;;;;;;7.33;2.30;;;11.50;99.90;;;;;;5057522;28;20229;-93
2023/07/26 04:26:26;;;;;;;4.93;2.00;;;11.50;99.90;;;;;;5061596;28;20204;-92
2023/07/26 04:28:53;;;;;;;5.93;2.53;;;11.50;99.90;;;;;;5062057;28;20232;-92
2023/07/26 04:31:21;;;;;;;7.43;3.00;;;11.60;99.90;;;;;;5076828;28;20209;-93
2023/07/26 04:33:48;;;;;;;9.37;2.60;;;11.60;99.90;;;;;;5058691;28;20221;-94
2023/07/26 04:36:15;;;;;;;5.80;2.30;;;11.60;99.90;;;;;;5051471;28;20431;-94
2023/07/26 04:38:42;;;;;;;4.67;2.33;;;11.70;99.90;;;;;;5035910;28;20208;-95
2023/07/26 04:41:09;;;;;;;5.57;2.30;;;11.70;99.90;;;;;;5064130;28;20403;-93
2023/07/26 04:43:36;;;;;;;3.83;2.07;;;11.70;99.90;;;;;;5067138;28;20234;-93
2023/07/26 04:46:03;;;;;;;5.20;2.37;;;11.80;99.90;;;;;;5079100;28;20370;-94
2023/07/26 04:48:31;;;;;;;4.73;2.63;;;11.80;99.90;;;;;;5076959;28;20218;-94
2023/07/26 04:50:58;;;;;;;4.07;2.27;;;11.80;99.90;;;;;;5063919;28;20205;-94
2023/07/26 04:53:25;;;;;;;3.43;2.30;;;11.90;99.90;;;;;;5060930;28;20273;-96
2023/07/26 04:55:53;;;;;;;3.87;2.17;;;11.90;99.90;;;;;;5067143;28;20214;-94
2023/07/26 04:58:20;;;;;;;5.57;2.43;;;11.90;99.90;;;;;;5082461;28;20207;-94
2023/07/26 05:00:47;;;;;;;4.27;2.07;;;12.00;99.90;;;;;;5082232;28;20226;-95
2023/07/26 05:03:14;;;;;;;3.10;2.00;;;12.00;99.90;;;;;;5085755;28;20285;-93
2023/07/26 05:05:42;;;;;;;6.00;2.13;;;12.00;99.90;;;;;;5100577;28;20226;-95
2023/07/26 05:08:09;;;;;;;5.20;2.53;;;12.10;99.90;;;;;;5082253;28;20237;-94
2023/07/26 05:10:37;;;;;;;4.83;2.13;;;12.10;99.90;;;;;;5100313;28;20207;-95
2023/07/26 05:13:04;;;;;;;9.07;2.50;;;12.20;99.90;;;;;;5099720;28;21081;-92
2023/07/26 05:15:31;;;;;;;6.10;2.27;;;12.30;99.90;;;;;;5077459;28;20228;-93
2023/07/26 05:17:58;;;;;;;3.50;2.07;;;12.30;99.90;;;;;;5084450;28;20218;-92
2023/07/26 05:20:28;;;;;;;5.83;2.40;;;12.40;99.90;;;;;;5095059;28;20215;-94
2023/07/26 05:22:56;;;;;;;3.87;1.80;;;12.50;99.90;;;;;;5086570;28;20202;-93
2023/07/26 05:25:23;;;;;;;4.03;2.00;;;12.50;99.90;;;;;;5085226;28;20222;-95
2023/07/26 05:27:50;;;;;;;2.93;2.03;;;12.60;99.90;;;;;;5088771;28;20223;-94
2023/07/26 05:30:18;;;;;;;3.47;1.60;;;12.60;99.90;;;;;;5094783;28;20222;-94
2023/07/26 05:32:44;;;;;;;4.63;2.43;;;12.70;99.90;;;;;;5083041;28;20226;-94
2023/07/26 05:35:12;;;;;;;3.60;2.00;;;12.70;99.90;;;;;;5086527;28;20205;-95
2023/07/26 05:37:39;;;;;;;6.53;2.33;;;12.80;99.90;;;;;;5083154;28;20223;-94
2023/07/26 05:40:09;;;;;;;4.93;2.37;;;12.80;99.90;;;;;;5101881;28;20209;-93
2023/07/26 05:42:37;;;;;;;4.70;2.10;;;12.90;99.90;;;;;;5077589;28;20224;-95
2023/07/26 05:45:04;;;;;;;4.90;2.23;;;12.90;99.90;;;;;;5108989;22;20224;-80
2023/07/26 05:47:33;;;;;;;4.70;2.10;;;12.90;99.90;;;;;;5063635;28;21215;-84
2023/07/26 05:50:00;;;;;;;5.50;2.43;;;13.00;99.90;;;;;;5055147;28;20231;-82
2023/07/26 05:52:27;;;;;;;3.23;1.93;;;13.10;99.90;;;;;;5061407;28;20595;-81
2023/07/26 05:54:54;;;;;;;4.27;2.30;;;13.10;99.90;;;;;;5062421;28;20344;-82
2023/07/26 05:57:22;;;;;;;3.23;2.20;;;13.20;99.90;;;;;;5066311;28;20220;-83
2023/07/26 05:59:48;;;;;;;8.00;2.50;;;13.30;99.90;;;;;;5064456;28;20238;-83
2023/07/26 06:02:15;;;;;;;5.90;2.20;;;13.30;99.90;;;;;;5037743;28;20596;-80
2023/07/26 06:04:42;;;;;;;5.33;2.30;;;13.40;99.90;;;;;;5064973;28;20218;-80
2023/07/26 06:07:09;;;;;;;6.43;2.23;;;13.50;99.90;;;;;;5046299;28;20233;-81
2023/07/26 06:09:35;;;;;;;3.93;1.93;;;13.50;99.90;;;;;;5067838;28;20644;-81
2023/07/26 06:12:02;;;;;;;6.63;2.30;;;13.60;99.90;;;;;;5065954;28;20607;-80
2023/07/26 06:14:31;;;;;;;6.67;2.47;;;13.70;99.90;;;;;;5064304;28;20233;-81
2023/07/26 06:16:58;;;;;;;5.60;2.10;;;13.80;99.90;;;;;;5058617;28;20329;-81
2023/07/26 06:19:25;;;;;;;5.87;2.37;;;13.90;99.90;;;;;;5066812;28;20249;-81
2023/07/26 06:21:55;;;;;;;6.40;2.17;;;13.90;99.90;;;;;;5064325;28;20588;-85
2023/07/26 06:24:22;;;;;;;3.53;2.33;;;14.10;99.90;;;;;;5056590;28;20566;-83
2023/07/26 06:26:49;;;;;;;4.67;1.90;;;14.10;99.90;;;;;;5049273;28;20233;-81
2023/07/26 06:29:15;;;;;;;4.70;2.50;;;14.20;99.90;;;;;;5065588;28;20253;-80
2023/07/26 06:31:43;;;;;;;5.13;2.10;;;14.20;99.90;;;;;;5066868;28;20222;-80
2023/07/26 06:34:10;;;;;;;4.40;2.10;;;14.20;99.90;;;;;;5066786;28;20317;-80
2023/07/26 06:36:37;;;;;;;4.47;2.00;;;14.20;99.90;;;;;;5064738;28;20706;-81
2023/07/26 06:39:04;;;;;;;6.50;2.13;;;14.30;99.90;;;;;;5065526;28;20613;-80
2023/07/26 06:41:30;;;;;;;5.73;2.00;;;14.30;99.90;;;;;;5062958;28;20254;-80
2023/07/26 06:43:57;;;;;;;6.17;2.27;;;14.40;99.90;;;;;;5063971;28;20261;-81
2023/07/26 06:46:24;;;;;;;4.73;2.10;;;14.50;99.90;;;;;;5068070;28;20237;-84
2023/07/26 06:48:54;;;;;;;7.23;2.23;;;14.60;99.90;;;;;;5069363;28;20596;-80
2023/07/26 06:51:21;;;;;;;5.83;2.40;;;14.70;99.90;;;;;;5058068;28;20233;-82
2023/07/26 06:53:48;;;;;;;6.30;2.30;;;14.90;99.90;;;;;;5070266;28;20285;-82
2023/07/26 06:56:14;;;;;;;3.53;2.00;;;15.10;99.90;;;;;;5067900;28;20226;-80
2023/07/26 06:58:41;;;;;;;6.03;2.07;;;15.30;99.90;;;;;;5065978;28;20230;-80
2023/07/26 07:01:16;;;;;;;3.93;1.90;;;15.60;99.90;;;;;;5070825;28;20227;-84
2023/07/26 07:03:43;;;;;;;4.87;2.13;;;15.80;99.90;;;;;;5075957;28;20655;-81
2023/07/26 07:06:11;;;;;;;3.03;1.67;;;16.00;99.90;;;;;;5063400;28;20220;-83
2023/07/26 07:08:38;;;;;;;5.20;2.10;;;16.30;99.90;;;;;;5071560;28;20230;-81
2023/07/26 07:11:05;;;;;;;5.83;2.30;;;16.40;99.90;;;;;;5064332;28;20220;-80
2023/07/26 07:13:34;;;;;;;4.70;1.90;;;16.50;99.90;;;;;;5070497;28;20243;-82
2023/07/26 07:16:03;;;;;;;4.57;1.83;;;16.70;99.90;;;;;;5068614;28;20233;-80
2023/07/26 07:18:30;;;;;;;3.43;1.50;;;16.70;99.90;;;;;;5069863;28;20243;-81
2023/07/26 07:20:57;;;;;;;3.73;2.03;;;16.90;99.90;;;;;;5052998;28;20228;-80
2023/07/26 07:23:25;;;;;;;6.30;2.20;;;17.10;99.90;;;;;;5070418;28;20224;-81
2023/07/26 07:25:52;;;;;;;4.70;1.90;;;17.40;99.90;;;;;;5060055;28;20411;-80
2023/07/26 07:28:19;;;;;;;3.92;1.90;;;17.70;99.90;;;;;;5075796;28;20763;-81
2023/07/26 07:30:46;;;;;;;3.08;1.50;;;18.00;99.90;;;;;;5055101;28;20306;-80
2023/07/26 07:33:12;;;;;;;4.00;1.90;;;18.30;99.90;;;;;;5045861;28;20212;-82
2023/07/26 07:35:39;;;;;;;3.58;1.55;;;18.70;99.90;;;;;;5056469;28;20695;-83
2023/07/26 07:38:06;;;;;;;4.75;1.55;;;19.00;99.90;;;;;;5069576;28;20219;-80
2023/07/26 07:40:34;;;;;;;3.30;1.73;;;19.30;99.90;;;;;;5068755;28;20220;-83
2023/07/26 07:43:00;;;;;;;3.97;1.60;;;19.50;99.90;;;;;;5067834;28;20236;-80
2023/07/26 07:45:27;;;;;;;3.10;1.65;;;19.70;99.90;;;;;;5059363;28;20230;-80
2023/07/26 07:47:54;;;;;;;3.92;1.80;;;19.90;99.90;;;;;;5066087;28;20242;-83
2023/07/26 07:50:20;;;;;;;4.10;1.80;;;20.20;99.90;;;;;;5054851;28;20220;-81
2023/07/26 07:52:47;;;;;;;3.85;1.80;;;20.50;99.90;;;;;;5071280;28;20226;-87
2023/07/26 07:55:14;;;;;;;3.80;1.70;;;21.00;99.90;;;;;;5077164;28;20216;-81
2023/07/26 07:57:42;;;;;;;4.68;1.70;;;21.50;99.90;;;;;;5055250;28;20231;-82
2023/07/26 08:00:11;;;;;;;3.45;1.65;;;22.00;99.90;;;;;;5058714;28;20588;-81
2023/07/26 08:02:40;;;;;;;3.55;1.60;;;22.50;99.90;;;;;;5049550;28;20232;-81
2023/07/26 08:05:07;;;;;;;2.72;1.40;;;23.10;98.90;;;;;;5070614;28;20706;-81
2023/07/26 08:07:34;;;;;;;2.67;1.33;;;23.50;97.70;;;;;;5064289;28;20640;-81
2023/07/26 08:10:01;;;;;;;2.92;1.30;;;23.90;97.30;;;;;;5074091;28;20227;-81
2023/07/26 08:12:27;;;;;;;2.83;1.50;;;24.10;96.40;;;;;;5050134;28;20303;-81
2023/07/26 08:14:55;;;;;;;3.97;1.60;;;24.30;96.20;;;;;;5067239;28;20219;-80
2023/07/26 08:17:22;;;;;;;4.50;1.50;;;24.40;95.30;;;;;;5073304;28;20223;-78
2023/07/26 08:19:49;;;;;;;4.07;1.30;;;24.60;95.10;;;;;;5061432;28;20231;-78
2023/07/26 08:22:15;;;;;;;4.35;1.50;;;24.70;95.10;;;;;;5068028;28;20223;-78
2023/07/26 08:24:42;;;;;;;2.75;1.48;;;24.90;95.00;;;;;;5069954;28;20219;-78
2023/07/26 08:27:09;;;;;;;5.95;1.98;;;25.00;94.70;;;;;;5068867;28;20238;-78
2023/07/26 08:29:35;;;;;;;2.50;1.27;;;25.20;94.40;;;;;;5070162;28;20315;-78
2023/07/26 08:32:04;;;;;;;3.90;1.42;;;25.30;93.50;;;;;;5069637;28;20782;-78
2023/07/26 08:34:31;;;;;;;2.83;1.40;;;25.60;92.70;;;;;;5051715;28;20272;-78
2023/07/26 08:36:57;;;;;;;4.15;1.50;;;25.80;92.60;;;;;;5065276;28;20260;-78
2023/07/26 08:39:24;;;;;;;6.60;1.40;;;26.00;92.20;;;;;;5068544;28;20231;-79
2023/07/26 08:41:51;;;;;;;2.60;1.40;;;26.20;90.70;;;;;;5051451;28;20713;-78
2023/07/26 08:44:18;;;;;;;5.07;1.60;;;26.50;90.80;;;;;;5051790;28;20245;-78
2023/07/26 08:46:47;;;;;;;2.55;1.33;;;26.70;90.00;;;;;;5051708;28;20227;-79
2023/07/26 08:49:15;;;;;;;1.95;1.10;;;26.90;88.50;;;;;;5069715;28;20617;-78
2023/07/26 08:51:43;;;;;;;3.03;1.10;;;27.00;83.50;;;;;;5051682;28;20227;-78
2023/07/26 08:54:10;;;;;;;2.13;1.30;;;26.80;84.40;;;;;;5058580;28;20760;-79
2023/07/26 08:56:37;;;;;;;4.95;1.50;;;26.50;83.40;;;;;;5063904;28;20599;-80
2023/07/26 08:59:04;;;;;;;6.53;1.80;;;26.20;89.30;;;;;;5053247;28;20231;-80
2023/07/26 09:01:31;;;;;;;4.00;1.58;;;25.70;91.70;;;;;;5051044;28;20410;-79
2023/07/26 09:03:58;;;;;;;3.83;1.30;;;25.10;91.20;;;;;;5060536;28;20710;-80
2023/07/26 09:06:26;;;;;;;2.92;1.65;;;24.40;90.80;;;;;;5068841;28;20699;-79
2023/07/26 09:08:53;;;;;;;3.35;1.40;;;23.80;91.20;;;;;;5068496;28;20229;-79
2023/07/26 09:11:24;;;;;;;3.78;1.27;;;23.10;92.80;;;;;;5064499;28;20227;-81
2023/07/26 09:13:55;;;;;;;4.15;1.33;;;22.40;91.90;;;;;;5049468;28;20258;-79
2023/07/26 09:16:22;;;;;;;4.80;1.23;;;21.90;92.40;;;;;;5061874;28;20227;-79
2023/07/26 09:18:59;;;;;;;3.95;1.20;;;21.40;93.50;;;;;;5063752;28;20220;-79
2023/07/26 09:21:29;;;;;;;1.20;0.80;;;21.20;93.00;;;;;;5062952;28;20856;-79
2023/07/26 09:23:56;;;;;;;2.20;1.00;;;21.20;93.60;;;;;;5054126;28;20601;-79
2023/07/26 09:26:34;;;;;;;1.15;0.80;;;21.50;93.60;;;;;;5049983;28;20219;-80
2023/07/26 09:29:02;;;;;;;1.60;0.95;;;21.90;92.60;;;;;;5063349;28;20231;-79
2023/07/26 09:31:32;;;;;;;1.30;0.90;;;22.40;92.90;;;;;;5050694;28;20691;-79
2023/07/26 09:34:00;;;;;;;2.35;1.20;;;22.70;91.70;;;;;;5068963;28;20219;-80
2023/07/26 09:36:41;;;;;;;1.10;1.00;;;23.00;91.40;;;;;;5069901;28;20228;-80
2023/07/26 09:39:08;;;;;;;1.35;1.00;;;23.10;90.20;;;;;;5068703;28;20223;-80
2023/07/26 09:41:34;;;;;;;2.58;0.90;;;23.30;90.40;;;;;;5050616;28;20225;-80
2023/07/26 09:44:01;;;;;;;1.85;0.90;;;23.30;89.10;;;;;;5060672;28;20919;-80
2023/07/26 09:46:27;;;;;;;1.70;0.70;;;23.40;88.80;;;;;;5059702;28;20685;-79
2023/07/26 09:48:59;;;;;;;0.93;0.70;;;23.40;87.40;;;;;;5063581;28;20215;-79
2023/07/26 09:51:28;;;;;;;2.00;0.70;;;23.60;86.00;;;;;;5065150;28;20388;-79
2023/07/26 09:53:56;;;;;;;1.50;0.77;;;23.80;87.40;;;;;;5050258;28;20223;-79
2023/07/26 09:56:24;;;;;;;1.02;0.90;;;24.10;86.50;;;;;;5054908;28;20227;-78
2023/07/26 09:58:51;;;;;;;1.15;0.80;;;24.50;85.70;;;;;;5071458;28;20227;-78
2023/07/26 10:01:20;;;;;;;1.85;0.90;;;24.80;83.00;;;;;;5067323;28;20223;-78
2023/07/26 10:03:51;;;;;;;3.03;0.90;;;25.10;82.70;;;;;;5068171;28;20318;-78
2023/07/26 10:06:19;;;;;;;0.70;0.70;;;25.40;80.20;;;;;;5070844;28;20241;-78
2023/07/26 10:08:48;;;;;;;2.08;0.70;;;25.50;76.00;;;;;;5071692;28;20310;-77
2023/07/26 10:11:16;;;;;;;1.27;0.88;;;25.70;76.70;;;;;;5062686;28;20725;-77
2023/07/26 10:13:44;;;;;;;0.88;0.75;;;25.90;75.80;;;;;;5063829;28;20233;-78
2023/07/26 10:16:10;;;;;;;1.33;0.80;;;26.10;75.60;;;;;;5069404;28;20240;-77
2023/07/26 10:18:37;;;;;;;1.05;0.73;;;26.30;74.40;;;;;;5071829;28;20509;-78
2023/07/26 10:21:06;;;;;;;0.85;0.80;;;26.50;74.60;;;;;;5073031;28;20249;-78
2023/07/26 10:23:33;;;;;;;1.20;0.75;;;26.70;73.90;;;;;;5072434;28;20239;-77
2023/07/26 10:26:04;;;;;;;0.70;0.70;;;26.80;72.90;;;;;;5072890;28;20237;-77
2023/07/26 10:28:33;;;;;;;1.10;0.90;;;26.90;71.00;;;;;;5074809;28;20250;-78
2023/07/26 10:31:01;;;;;;;3.08;0.95;;;26.90;71.00;;;;;;5067835;28;20721;-78
2023/07/26 10:33:28;;;;;;;2.08;0.90;;;26.90;71.00;;;;;;5073454;28;20870;-78
2023/07/26 10:35:55;;;;;;;1.02;0.80;;;26.80;70.70;;;;;;5076159;28;20314;-78
2023/07/26 10:38:22;;;;;;;1.25;0.90;;;26.70;71.90;;;;;;5059726;28;20223;-78
2023/07/26 10:40:48;;;;;;;2.08;0.82;;;26.60;70.70;;;;;;5069985;28;20781;-78
2023/07/26 10:43:41;;;;;;;0.63;0.60;;;26.50;70.80;;;;;;5073116;28;20587;-78
2023/07/26 10:46:13;;;;;;;0.88;0.88;;;26.40;69.40;;;;;;5061601;28;20235;-78
2023/07/26 10:48:41;;;;;;;1.48;0.80;;;26.20;69.20;;;;;;5073105;28;20223;-78
2023/07/26 10:51:32;;;;;;;2.15;0.90;;;26.00;69.80;;;;;;5074050;28;20228;-77
2023/07/26 10:54:00;;;;;;;1.10;0.70;;;25.60;68.20;;;;;;5049876;28;20223;-78
2023/07/26 10:56:28;;;;;;;1.20;0.65;;;25.30;68.70;;;;;;5069096;28;20989;-78
2023/07/26 10:58:58;;;;;;;0.95;0.70;;;25.00;70.20;;;;;;5075241;28;20234;-78
2023/07/26 11:01:33;;;;;;;0.95;0.70;;;24.90;70.90;;;;;;5072982;28;20228;-78
2023/07/26 11:04:00;;;;;;;1.50;0.73;;;24.90;71.90;;;;;;5053594;28;21161;-78
2023/07/26 11:06:48;;;;;;;2.05;0.80;;;24.90;71.80;;;;;;5073138;28;20335;-77
2023/07/26 11:09:26;;;;;;;1.42;0.88;;;24.80;70.50;;;;;;5070329;28;20294;-77
2023/07/26 11:11:58;;;;;;;1.40;1.02;;;24.80;69.70;;;;;;5073384;28;20223;-78
2023/07/26 11:14:27;;;;;;;2.15;0.82;;;24.60;70.40;;;;;;5070385;28;20666;-78
2023/07/26 11:16:54;;;;;;;0.85;0.68;;;24.50;71.20;;;;;;5076722;28;20785;-78
2023/07/26 11:19:21;;;;;;;1.05;0.85;;;24.40;72.10;;;;;;5051801;28;20224;-77
2023/07/26 11:21:48;;;;;;;1.30;0.90;;;24.30;72.40;;;;;;5067563;28;20597;-78
2023/07/26 11:24:14;;;;;;;1.75;1.00;;;24.20;72.30;;;;;;5057998;28;20350;-78
2023/07/26 11:26:45;;;;;;;1.00;0.80;;;24.20;72.70;;;;;;5072994;28;20231;-78
2023/07/26 11:29:13;;;;;;;1.55;0.80;;;24.20;70.70;;;;;;5071700;28;20230;-77
2023/07/26 11:31:41;;;;;;;0.90;0.80;;;24.20;70.60;;;;;;5058200;28;20234;-78
2023/07/26 11:34:15;;;;;;;1.00;0.73;;;24.30;70.70;;;;;;5047191;28;20236;-79
2023/07/26 11:36:42;;;;;;;3.20;0.70;;;24.30;70.50;;;;;;5065869;28;20322;-78
2023/07/26 11:39:19;;;;;;;1.02;0.80;;;24.40;69.50;;;;;;5073432;28;20223;-78
2023/07/26 11:41:46;;;;;;;0.90;0.65;;;24.50;70.00;;;;;;5073622;28;20245;-77
2023/07/26 11:44:14;;;;;;;1.10;0.70;;;24.70;70.60;;;;;;5073212;28;20231;-78
2023/07/26 11:46:44;;;;;;;1.55;0.80;;;24.90;69.70;;;;;;5046176;28;20223;-78
2023/07/26 11:49:21;;;;;;;1.25;0.70;;;25.20;69.90;;;;;;5057978;28;20297;-78
2023/07/26 11:51:48;;;;;;;2.33;0.75;;;25.40;68.50;;;;;;5059856;28;20223;-78
2023/07/26 11:54:15;;;;;;;1.83;0.73;;;25.60;69.30;;;;;;5067375;28;20226;-78
2023/07/26 11:56:42;;;;;;;1.80;1.00;;;25.70;68.00;;;;;;5073827;28;20748;-78
2023/07/26 11:59:10;;;;;;;1.52;0.70;;;25.80;67.60;;;;;;5052968;28;20229;-78
2023/07/26 12:01:38;;;;;;;0.90;0.63;;;25.90;66.40;;;;;;5055309;28;20224;-78
2023/07/26 12:04:11;;;;;;;1.35;0.90;;;26.00;66.90;;;;;;5070368;28;20251;-77
2023/07/26 12:06:40;;;;;;;2.78;0.88;;;25.90;65.40;;;;;;5061058;28;20227;-78
2023/07/26 12:09:09;;;;;;;1.17;0.88;;;25.70;65.10;;;;;;5073357;28;20251;-78
2023/07/26 12:11:37;;;;;;;1.42;1.00;;;25.40;65.60;;;;;;5072637;28;20234;-78
2023/07/26 12:14:04;;;;;;;3.00;0.95;;;25.10;66.70;;;;;;5053568;28;20232;-78
2023/07/26 12:16:31;;;;;;;2.13;0.95;;;24.70;69.30;;;;;;5062010;28;20309;-77
2023/07/26 12:19:00;;;;;;;1.77;0.90;;;24.20;79.10;;;;;;5070320;28;20226;-78
2023/07/26 12:21:29;;;;;;;1.17;1.00;;;23.70;79.90;;;;;;5071232;28;20307;-77
2023/07/26 12:23:57;;;;;;;2.63;0.95;;;23.20;81.10;;;;;;5071573;28;20231;-78
2023/07/26 12:26:26;;;;;;;4.70;1.10;;;22.70;80.20;;;;;;5066762;28;20234;-78
2023/07/26 12:28:54;;;;;;;1.77;1.10;;;22.30;82.60;;;;;;5071402;28;20227;-77
2023/07/26 12:31:23;;;;;;;2.45;1.02;;;21.90;82.70;;;;;;5070521;28;20215;-78
2023/07/26 12:34:00;;;;;;;2.25;1.10;;;21.50;83.20;;;;;;5071902;28;20311;-77
2023/07/26 12:36:30;;;;;;;1.52;0.80;;;21.20;83.60;;;;;;5071043;28;20298;-78
2023/07/26 12:38:57;;;;;;;2.33;1.00;;;21.10;84.10;;;;;;5072465;28;20227;-77
2023/07/26 12:41:24;;;;;;;1.42;1.00;;;21.00;84.60;;;;;;5069441;28;20227;-78
2023/07/26 12:43:53;;;;;;;3.28;1.00;;;21.10;85.30;;;;;;5068666;28;20231;-78
2023/07/26 12:46:20;;;;;;;2.97;1.10;;;21.30;85.60;;;;;;5067201;28;20255;-77
2023/07/26 12:48:47;;;;;;;2.80;1.08;;;21.60;84.10;;;;;;5067719;28;20314;-78
2023/07/26 12:51:14;;;;;;;2.35;1.00;;;21.80;83.00;;;;;;5067436;28;20644;-77